Time;durP1;ratioP1;P1;durP2;ratioP2;P2;SDS_P1;SDS_P2;PMS_P1;PMS_P2;Temp;Humidity;BMP_temperature;BMP_pressure;BME280_temperature;BME280_humidity;BME280_pressure;Samples;Min_cycle;Max_cycle;Signal;HPM_P1;HPM_P2
2022/11/10 00:00:56;;;;;;;9.20;7.10;;;13.10;99.90;;;;;;5032616;28;20497;-84
2022/11/10 00:03:23;;;;;;;8.93;6.70;;;13.10;99.90;;;;;;5032558;28;20450;-84
2022/11/10 00:05:50;;;;;;;9.50;6.53;;;13.10;99.90;;;;;;5042239;28;20445;-83
2022/11/10 00:08:16;;;;;;;7.37;4.50;;;13.10;99.90;;;;;;5042472;28;20452;-84
2022/11/10 00:11:00;;;;;;;4.67;4.27;;;13.10;99.90;;;;;;5033167;28;20487;-84
2022/11/10 00:13:30;;;;;;;7.50;4.50;;;13.00;99.90;;;;;;5035058;28;20517;-84
2022/11/10 00:18:45;;;;;;;6.00;4.33;;;13.00;99.90;;;;;;5044881;28;20438;-83
2022/11/10 00:21:13;;;;;;;6.07;4.53;;;13.00;99.90;;;;;;5034231;28;20879;-84
2022/11/10 00:23:40;;;;;;;5.87;5.37;;;13.00;99.90;;;;;;5033112;28;20452;-84
2022/11/10 00:26:16;;;;;;;7.10;5.07;;;13.00;99.90;;;;;;5031134;28;20449;-83
2022/11/10 00:28:43;;;;;;;6.90;5.33;;;12.90;99.90;;;;;;5032057;28;20520;-84
2022/11/10 00:31:12;;;;;;;5.20;4.70;;;12.90;99.90;;;;;;5032335;28;20441;-84
2022/11/10 00:33:41;;;;;;;5.83;5.23;;;12.90;99.90;;;;;;5032845;28;20457;-83
2022/11/10 00:36:08;;;;;;;6.23;5.63;;;13.00;99.90;;;;;;5032198;28;20453;-84
2022/11/10 00:38:35;;;;;;;5.90;5.30;;;13.00;99.90;;;;;;5032124;28;20457;-84
2022/11/10 00:41:02;;;;;;;5.50;5.00;;;13.00;99.90;;;;;;5032019;28;20979;-84
2022/11/10 00:43:30;;;;;;;6.80;5.40;;;13.10;99.90;;;;;;5033508;28;20456;-84
2022/11/10 00:45:57;;;;;;;6.30;5.57;;;13.00;99.90;;;;;;5035301;28;20449;-84
2022/11/10 00:48:25;;;;;;;6.23;5.10;;;13.00;99.90;;;;;;5032382;28;20445;-84
2022/11/10 00:50:52;;;;;;;6.53;4.83;;;13.00;99.90;;;;;;5031753;28;20476;-84
2022/11/10 00:53:19;;;;;;;4.87;4.17;;;13.10;99.90;;;;;;5032005;28;20831;-83
2022/11/10 00:55:45;;;;;;;6.90;4.80;;;13.10;99.90;;;;;;5034764;28;20449;-84
2022/11/10 00:58:12;;;;;;;6.83;4.70;;;13.00;99.90;;;;;;5036515;28;20829;-84
2022/11/10 01:00:41;;;;;;;9.40;5.00;;;13.00;99.90;;;;;;5042907;22;20502;-82
2022/11/10 01:03:15;;;;;;;7.93;5.80;;;13.00;99.90;;;;;;5024229;28;20579;-82
2022/11/10 01:05:50;;;;;;;6.13;4.90;;;13.00;99.90;;;;;;5023660;28;20446;-81
2022/11/10 01:08:19;;;;;;;6.53;5.10;;;13.00;99.90;;;;;;5024441;28;20484;-82
2022/11/10 01:10:50;;;;;;;4.57;3.40;;;13.10;99.90;;;;;;5037358;28;20474;-82
2022/11/10 01:13:18;;;;;;;4.30;3.30;;;13.10;99.90;;;;;;5033687;28;20450;-82
2022/11/10 01:15:45;;;;;;;3.73;2.83;;;13.00;99.90;;;;;;5024599;28;20458;-82
2022/11/10 01:18:15;;;;;;;5.10;3.80;;;13.00;99.90;;;;;;5034079;28;20449;-82
2022/11/10 01:20:44;;;;;;;3.90;3.40;;;13.00;99.90;;;;;;5036986;28;20454;-82
2022/11/10 01:23:11;;;;;;;5.47;3.40;;;13.00;99.90;;;;;;5039167;28;20485;-81
2022/11/10 01:25:41;;;;;;;5.60;3.27;;;12.90;99.90;;;;;;5020238;28;20487;-82
2022/11/10 01:28:09;;;;;;;5.20;3.10;;;12.80;99.90;;;;;;5037458;28;20440;-79
2022/11/10 01:30:37;;;;;;;3.50;2.53;;;12.70;99.90;;;;;;5039740;28;20466;-82
2022/11/10 01:33:05;;;;;;;5.60;3.40;;;12.70;99.90;;;;;;5024651;28;20453;-82
2022/11/10 01:35:34;;;;;;;3.83;2.33;;;12.70;99.90;;;;;;5029444;28;20526;-83
2022/11/10 01:38:05;;;;;;;8.90;4.63;;;12.70;99.90;;;;;;5029912;28;20450;-82
2022/11/10 01:40:32;;;;;;;7.43;3.30;;;12.60;99.90;;;;;;5025373;28;20474;-82
2022/11/10 01:43:00;;;;;;;6.07;2.93;;;12.60;99.90;;;;;;5024839;28;20490;-82
2022/11/10 01:45:50;;;;;;;5.60;2.97;;;12.60;99.90;;;;;;5023017;28;20466;-84
2022/11/10 01:48:24;;;;;;;5.90;2.87;;;12.50;99.90;;;;;;5023248;28;20455;-83
2022/11/10 01:50:52;;;;;;;4.23;2.70;;;12.40;99.90;;;;;;5022834;28;20482;-82
2022/11/10 01:53:27;;;;;;;4.83;3.00;;;12.40;99.90;;;;;;5023626;28;20986;-82
2022/11/10 01:55:56;;;;;;;8.30;3.20;;;12.40;99.90;;;;;;5023573;28;20454;-82
2022/11/10 01:58:29;;;;;;;8.73;3.50;;;12.40;99.90;;;;;;5021544;28;20458;-82
2022/11/10 02:00:58;;;;;;;7.60;2.70;;;12.20;99.90;;;;;;5024988;28;20541;-83
2022/11/10 02:03:30;;;;;;;5.80;3.50;;;12.10;99.90;;;;;;5035130;28;20491;-82
2022/11/10 02:05:58;;;;;;;7.60;3.50;;;12.10;99.90;;;;;;5029676;28;20455;-82
2022/11/10 02:08:29;;;;;;;7.03;2.60;;;11.90;99.90;;;;;;5025476;28;20449;-82
2022/11/10 02:11:00;;;;;;;9.27;3.60;;;11.80;99.90;;;;;;5025194;28;20474;-83
2022/11/10 02:13:27;;;;;;;5.27;2.90;;;11.60;99.90;;;;;;5024588;28;21006;-83
2022/11/10 02:15:55;;;;;;;5.40;3.20;;;11.70;99.90;;;;;;5023875;28;20461;-83
2022/11/10 02:18:22;;;;;;;6.53;3.40;;;11.50;99.90;;;;;;5023921;28;20454;-83
2022/11/10 02:20:53;;;;;;;8.90;3.03;;;11.50;99.90;;;;;;5023671;28;20569;-83
2022/11/10 02:23:44;;;;;;;10.97;3.90;;;11.40;99.90;;;;;;5029920;28;20482;-82
2022/11/10 02:26:12;;;;;;;5.37;3.60;;;11.40;99.90;;;;;;5026526;28;20454;-83
2022/11/10 02:28:39;;;;;;;6.67;3.50;;;11.40;99.90;;;;;;5025356;28;20451;-83
2022/11/10 02:31:08;;;;;;;7.20;3.33;;;11.40;99.90;;;;;;5034413;28;20462;-82
2022/11/10 02:33:36;;;;;;;6.00;3.70;;;11.40;99.90;;;;;;5039753;28;20494;-82
2022/11/10 02:36:06;;;;;;;9.03;3.63;;;11.40;99.90;;;;;;5033167;28;20446;-83
2022/11/10 02:38:33;;;;;;;12.37;3.93;;;11.50;99.90;;;;;;5023221;28;20446;-83
2022/11/10 02:41:01;;;;;;;9.97;4.00;;;11.50;99.90;;;;;;5023141;28;20953;-83
2022/11/10 02:43:30;;;;;;;8.70;4.07;;;11.70;99.90;;;;;;5024237;28;20524;-83
2022/11/10 02:45:57;;;;;;;6.43;3.57;;;11.70;99.90;;;;;;5029590;28;20477;-83
2022/11/10 02:48:25;;;;;;;7.80;4.13;;;11.80;99.90;;;;;;5032535;28;20678;-82
2022/11/10 02:50:53;;;;;;;5.77;3.60;;;11.80;99.90;;;;;;5028520;28;20509;-83
2022/11/10 02:53:27;;;;;;;8.30;4.33;;;11.80;99.90;;;;;;5024125;28;20971;-82
2022/11/10 02:55:54;;;;;;;8.03;3.97;;;11.80;99.90;;;;;;5023577;28;20470;-83
2022/11/10 02:58:22;;;;;;;5.60;3.20;;;11.80;99.90;;;;;;5022857;28;20482;-82
2022/11/10 03:00:50;;;;;;;7.73;4.83;;;11.70;99.90;;;;;;5023066;28;20572;-82
2022/11/10 03:03:18;;;;;;;8.00;4.20;;;11.60;99.90;;;;;;5031681;28;20486;-83
2022/11/10 03:05:45;;;;;;;8.43;4.40;;;11.60;99.90;;;;;;5028172;28;20450;-83
2022/11/10 03:08:13;;;;;;;8.10;3.73;;;11.70;99.90;;;;;;5023063;28;20537;-82
2022/11/10 03:10:44;;;;;;;7.60;4.53;;;11.70;99.90;;;;;;5022641;28;20486;-82
2022/11/10 03:13:11;;;;;;;5.50;4.57;;;11.80;99.90;;;;;;5030301;28;20497;-82
2022/11/10 03:15:39;;;;;;;9.13;3.53;;;11.70;99.90;;;;;;5029765;28;20459;-82
2022/11/10 03:18:06;;;;;;;8.07;4.10;;;11.60;99.90;;;;;;5023156;28;20476;-82
2022/11/10 03:20:34;;;;;;;4.50;4.10;;;11.70;99.90;;;;;;5021962;28;20474;-82
2022/11/10 03:23:02;;;;;;;9.40;4.23;;;11.60;99.90;;;;;;5021714;28;20489;-83
2022/11/10 03:25:29;;;;;;;4.60;3.90;;;11.60;99.90;;;;;;5022294;28;20459;-82
2022/11/10 03:27:59;;;;;;;7.60;4.63;;;11.60;99.90;;;;;;5021175;28;20458;-82
2022/11/10 03:30:27;;;;;;;7.33;5.13;;;11.60;99.90;;;;;;5020901;28;20466;-82
2022/11/10 03:32:55;;;;;;;10.03;4.63;;;11.60;99.90;;;;;;5020855;28;20459;-82
2022/11/10 03:35:22;;;;;;;8.63;3.93;;;11.70;99.90;;;;;;5025514;28;20449;-80
2022/11/10 03:37:50;;;;;;;9.30;4.30;;;11.70;99.90;;;;;;5038480;28;20453;-80
2022/11/10 03:40:17;;;;;;;6.47;4.03;;;11.70;99.90;;;;;;5030473;28;20506;-80
2022/11/10 03:42:46;;;;;;;7.57;3.80;;;11.70;99.90;;;;;;5023258;28;20510;-82
2022/11/10 03:45:16;;;;;;;7.83;4.23;;;11.70;99.90;;;;;;5022101;28;20454;-83
2022/11/10 03:47:46;;;;;;;6.23;4.63;;;11.60;99.90;;;;;;5020666;28;20446;-82
2022/11/10 03:50:13;;;;;;;6.03;4.33;;;11.60;99.90;;;;;;5027770;28;20476;-82
2022/11/10 03:52:42;;;;;;;8.70;4.43;;;11.60;99.90;;;;;;5026898;28;20454;-82
2022/11/10 03:55:12;;;;;;;6.83;4.30;;;11.50;99.90;;;;;;5027872;28;20451;-81
2022/11/10 03:57:39;;;;;;;9.93;5.20;;;11.50;99.90;;;;;;5034182;28;20944;-81
2022/11/10 04:00:08;;;;;;;11.00;5.23;;;11.50;99.90;;;;;;5026585;28;20493;-82
2022/11/10 04:09:02;;;;;;;10.60;5.70;;;11.60;99.90;;;;;;5020807;28;20434;-81
2022/11/10 04:17:01;;;;;;;10.03;5.03;;;11.60;99.90;;;;;;5022278;28;20487;-82
2022/11/10 04:19:28;;;;;;;8.57;4.17;;;11.50;99.90;;;;;;5020957;28;20901;-83
2022/11/10 04:21:59;;;;;;;6.07;3.90;;;11.40;99.90;;;;;;5020111;28;20536;-82
2022/11/10 04:24:27;;;;;;;9.67;5.13;;;11.30;99.90;;;;;;5019050;28;20458;-82
2022/11/10 04:26:54;;;;;;;9.70;4.37;;;11.30;99.90;;;;;;5020867;28;20459;-82
2022/11/10 04:29:22;;;;;;;9.30;5.30;;;11.30;99.90;;;;;;5032066;28;20474;-82
2022/11/10 04:31:49;;;;;;;6.13;4.30;;;11.40;99.90;;;;;;5029446;28;20447;-82
2022/11/10 04:34:16;;;;;;;13.17;5.17;;;11.40;99.90;;;;;;5022997;28;20450;-82
2022/11/10 04:36:44;;;;;;;8.30;5.00;;;11.50;99.90;;;;;;5024799;28;20450;-81
2022/11/10 04:39:16;;;;;;;11.40;5.30;;;11.50;99.90;;;;;;5037861;28;20438;-80
2022/11/10 04:41:43;;;;;;;25.97;23.47;;;11.50;99.90;;;;;;5022491;28;20450;-81
2022/11/10 04:44:11;;;;;;;7.70;5.60;;;11.50;99.90;;;;;;5017274;28;20482;-84
2022/11/10 04:46:39;;;;;;;7.63;4.33;;;11.50;99.90;;;;;;5029378;28;20481;-82
2022/11/10 04:49:08;;;;;;;9.17;4.93;;;11.40;99.90;;;;;;5021639;28;20459;-81
2022/11/10 04:51:38;;;;;;;9.87;4.30;;;11.30;99.90;;;;;;5020422;28;20465;-82
2022/11/10 04:54:07;;;;;;;10.23;4.50;;;11.10;99.90;;;;;;5030611;28;20458;-82
2022/11/10 04:56:36;;;;;;;9.70;3.63;;;11.00;99.90;;;;;;5026075;28;20454;-82
2022/11/10 04:59:04;;;;;;;8.00;4.10;;;10.90;99.90;;;;;;5021861;28;20458;-83
2022/11/10 05:01:31;;;;;;;8.03;4.67;;;10.80;99.90;;;;;;5022230;28;20478;-82
2022/11/10 05:03:59;;;;;;;8.80;5.07;;;10.80;99.90;;;;;;5021586;28;20557;-84
2022/11/10 05:06:26;;;;;;;10.33;4.47;;;10.70;99.90;;;;;;5021342;28;20486;-84
2022/11/10 05:08:54;;;;;;;8.90;4.90;;;10.60;99.90;;;;;;5020597;28;20831;-84
2022/11/10 05:11:22;;;;;;;6.70;4.80;;;10.60;99.90;;;;;;5032895;28;20457;-83
2022/11/10 05:13:52;;;;;;;10.17;7.10;;;10.50;99.90;;;;;;5037103;28;20461;-84
2022/11/10 05:16:20;;;;;;;10.20;5.90;;;10.40;99.90;;;;;;5036513;28;20442;-84
2022/11/10 05:18:52;;;;;;;8.17;4.10;;;10.40;99.90;;;;;;5035447;28;20470;-82
2022/11/10 05:21:20;;;;;;;11.20;5.90;;;10.30;99.90;;;;;;5034350;28;21001;-84
2022/11/10 05:23:47;;;;;;;9.13;5.23;;;10.30;99.90;;;;;;5021260;28;20479;-83
2022/11/10 05:26:19;;;;;;;9.87;5.30;;;10.20;99.90;;;;;;5030692;28;20453;-84
2022/11/10 05:28:47;;;;;;;7.67;5.17;;;10.20;99.90;;;;;;5037469;28;20469;-83
2022/11/10 05:31:16;;;;;;;5.87;4.90;;;10.20;99.90;;;;;;5024992;28;20473;-83
2022/11/10 05:33:50;;;;;;;9.97;5.47;;;10.20;99.90;;;;;;5032048;28;20477;-83
2022/11/10 05:36:22;;;;;;;8.97;5.73;;;10.10;99.90;;;;;;5037742;28;20458;-82
2022/11/10 05:41:56;;;;;;;12.50;6.50;;;10.00;99.90;;;;;;5027508;28;20429;-84
2022/11/10 05:44:34;;;;;;;6.73;6.03;;;10.00;99.90;;;;;;5030310;28;20539;-83
2022/11/10 05:47:02;;;;;;;13.40;6.20;;;9.90;99.90;;;;;;5028643;28;20463;-84
2022/11/10 05:49:29;;;;;;;11.67;5.80;;;9.90;99.90;;;;;;5049456;28;20461;-84
2022/11/10 05:51:55;;;;;;;9.70;6.23;;;9.90;99.90;;;;;;5059888;28;20420;-85
2022/11/10 05:54:22;;;;;;;12.67;6.23;;;9.90;99.90;;;;;;5044391;28;20514;-84
2022/11/10 05:56:49;;;;;;;9.87;6.60;;;9.80;99.90;;;;;;5033367;28;20457;-84
2022/11/10 05:59:15;;;;;;;8.43;5.70;;;9.80;99.90;;;;;;5021786;28;20553;-84
2022/11/10 06:01:42;;;;;;;12.07;7.03;;;9.70;99.90;;;;;;5016170;28;20928;-84
2022/11/10 06:04:10;;;;;;;12.10;6.90;;;9.70;99.90;;;;;;5020157;28;20488;-84
2022/11/10 06:06:37;;;;;;;8.13;6.70;;;9.70;99.90;;;;;;5035498;28;20457;-84
2022/11/10 06:09:04;;;;;;;10.47;7.00;;;9.70;99.90;;;;;;5034540;28;20450;-85
2022/11/10 06:11:31;;;;;;;9.40;6.93;;;9.70;99.90;;;;;;5044351;28;20729;-85
2022/11/10 06:13:59;;;;;;;12.27;6.90;;;9.60;99.90;;;;;;5043385;28;20437;-85
2022/11/10 06:16:26;;;;;;;15.07;9.00;;;9.60;99.90;;;;;;5043422;28;20552;-84
2022/11/10 06:18:53;;;;;;;14.40;10.30;;;9.60;99.90;;;;;;5045813;28;20458;-84
2022/11/10 06:21:21;;;;;;;11.57;8.00;;;9.60;99.90;;;;;;5045329;28;20544;-84
2022/11/10 06:23:48;;;;;;;20.67;7.10;;;9.60;99.90;;;;;;5044867;28;20478;-84
2022/11/10 06:26:14;;;;;;;11.73;6.90;;;9.70;99.90;;;;;;5044681;28;20541;-84
2022/11/10 06:28:41;;;;;;;9.37;7.73;;;9.70;99.90;;;;;;5053401;28;20438;-84
2022/11/10 06:31:08;;;;;;;16.90;9.90;;;9.70;99.90;;;;;;5056679;28;20473;-84
2022/11/10 06:33:34;;;;;;;20.80;10.40;;;9.80;99.90;;;;;;5047138;28;20434;-84
2022/11/10 06:36:01;;;;;;;14.37;9.00;;;9.70;99.90;;;;;;5047158;28;20445;-84
2022/11/10 06:38:29;;;;;;;13.03;9.23;;;9.70;99.90;;;;;;5046333;28;20517;-84
2022/11/10 06:40:56;;;;;;;22.73;9.20;;;9.80;99.90;;;;;;5053461;28;20489;-84
2022/11/10 06:43:23;;;;;;;16.33;8.60;;;9.80;99.90;;;;;;5056123;28;20489;-84
2022/11/10 06:45:49;;;;;;;23.93;8.10;;;9.80;99.90;;;;;;5051563;28;20477;-84
2022/11/10 06:48:16;;;;;;;12.43;7.07;;;9.80;99.90;;;;;;5047384;28;20457;-84
2022/11/10 06:50:43;;;;;;;15.40;9.47;;;9.90;99.90;;;;;;5050494;28;20457;-83
2022/11/10 06:53:12;;;;;;;12.10;9.07;;;10.00;99.90;;;;;;5056222;28;20445;-84
2022/11/10 06:55:40;;;;;;;9.77;8.13;;;10.00;99.90;;;;;;5050760;28;20453;-84
2022/11/10 06:58:07;;;;;;;13.23;8.73;;;10.10;99.90;;;;;;5053110;28;20485;-84
2022/11/10 07:00:33;;;;;;;15.10;10.77;;;10.20;99.90;;;;;;5051150;22;20502;-83
2022/11/10 07:03:05;;;;;;;17.10;11.07;;;10.30;99.90;;;;;;5018124;28;20865;-81
2022/11/10 07:05:33;;;;;;;13.80;9.60;;;10.40;99.90;;;;;;5017521;28;20453;-83
2022/11/10 07:08:03;;;;;;;14.93;9.40;;;10.40;99.90;;;;;;5016557;28;20451;-81
2022/11/10 07:10:30;;;;;;;16.57;10.47;;;10.50;99.90;;;;;;5016222;28;20462;-81
2022/11/10 07:12:59;;;;;;;15.60;10.10;;;10.60;99.90;;;;;;5015948;28;20442;-82
2022/11/10 07:15:26;;;;;;;21.23;10.93;;;10.70;99.90;;;;;;5015480;28;20443;-82
2022/11/10 07:17:53;;;;;;;22.27;10.70;;;10.80;99.90;;;;;;5015779;28;20522;-81
2022/11/10 07:20:20;;;;;;;16.83;9.47;;;10.80;99.90;;;;;;5016520;28;20820;-82
2022/11/10 07:22:47;;;;;;;18.20;9.43;;;10.90;99.90;;;;;;5015535;28;20442;-82
2022/11/10 07:25:14;;;;;;;20.20;11.80;;;11.00;99.90;;;;;;5016159;28;20447;-81
2022/11/10 07:27:41;;;;;;;21.50;10.13;;;11.10;99.90;;;;;;5023488;28;20936;-81
2022/11/10 07:30:10;;;;;;;16.90;12.20;;;11.10;99.90;;;;;;5023157;28;20477;-82
2022/11/10 07:32:37;;;;;;;21.23;12.50;;;11.30;99.90;;;;;;5020215;28;20446;-82
2022/11/10 07:35:04;;;;;;;16.13;12.23;;;11.30;99.90;;;;;;5025662;28;20439;-80
2022/11/10 07:37:31;;;;;;;17.70;12.47;;;11.40;99.90;;;;;;5026008;28;20459;-81
2022/11/10 07:39:57;;;;;;;15.87;11.80;;;11.40;99.90;;;;;;5025732;28;20512;-82
2022/11/10 07:42:24;;;;;;;19.23;15.20;;;11.40;99.90;;;;;;5019829;28;20470;-83
2022/11/10 07:44:51;;;;;;;18.10;11.97;;;11.40;99.90;;;;;;5016035;28;20879;-81
2022/11/10 07:47:19;;;;;;;16.60;12.10;;;11.30;99.90;;;;;;5015781;28;20455;-82
2022/11/10 07:49:46;;;;;;;19.50;11.77;;;11.30;99.90;;;;;;5026018;28;20465;-80
2022/11/10 07:52:12;;;;;;;15.80;12.77;;;11.20;99.90;;;;;;5021487;28;20450;-83
2022/11/10 07:54:39;;;;;;;18.10;14.20;;;11.20;99.90;;;;;;5015967;28;20825;-82
2022/11/10 07:57:06;;;;;;;29.13;14.10;;;11.20;99.90;;;;;;5018695;28;20518;-81
2022/11/10 07:59:32;;;;;;;17.80;10.93;;;11.20;99.90;;;;;;5022344;28;20451;-83
2022/11/10 08:01:59;;;;;;;12.63;9.90;;;11.20;99.90;;;;;;5015538;28;20474;-83
2022/11/10 08:04:27;;;;;;;17.17;9.30;;;11.20;99.90;;;;;;5014385;28;20570;-83
2022/11/10 08:06:54;;;;;;;11.50;8.20;;;11.30;99.90;;;;;;5014637;28;20453;-83
2022/11/10 08:09:21;;;;;;;13.03;10.17;;;11.30;99.90;;;;;;5015022;28;20454;-83
2022/11/10 08:11:47;;;;;;;16.77;8.17;;;11.40;99.90;;;;;;5015337;28;20470;-82
2022/11/10 08:14:14;;;;;;;11.53;6.50;;;11.40;99.90;;;;;;5015404;28;20446;-82
2022/11/10 08:16:41;;;;;;;7.77;6.10;;;11.50;99.90;;;;;;5030673;28;20450;-80
2022/11/10 08:19:08;;;;;;;15.70;8.37;;;11.50;99.90;;;;;;5036237;28;20450;-79
2022/11/10 08:21:36;;;;;;;12.30;8.23;;;11.60;99.90;;;;;;5031252;28;20459;-81
2022/11/10 08:24:03;;;;;;;14.47;10.77;;;11.90;99.90;;;;;;5024666;28;20546;-83
2022/11/10 08:26:30;;;;;;;17.13;12.17;;;12.10;99.90;;;;;;5015728;28;20461;-83
2022/11/10 08:28:56;;;;;;;15.40;12.27;;;12.60;99.90;;;;;;5014648;28;20465;-83
2022/11/10 08:31:23;;;;;;;22.30;12.07;;;13.10;99.90;;;;;;5014405;28;20470;-83
2022/11/10 08:33:50;;;;;;;9.30;6.73;;;13.40;99.90;;;;;;5029775;28;20419;-80
2022/11/10 08:36:17;;;;;;;10.47;7.13;;;13.70;99.90;;;;;;5027060;28;20452;-83
2022/11/10 08:38:45;;;;;;;12.90;9.17;;;13.80;99.90;;;;;;5026609;28;20827;-84
2022/11/10 08:41:11;;;;;;;12.93;10.00;;;14.20;99.90;;;;;;5016762;28;20477;-84
2022/11/10 08:43:38;;;;;;;11.10;8.70;;;14.50;99.90;;;;;;5016675;28;20806;-83
2022/11/10 08:46:05;;;;;;;11.17;7.83;;;14.50;99.90;;;;;;5015480;28;20820;-83
2022/11/10 08:48:32;;;;;;;11.90;8.27;;;14.80;99.90;;;;;;5015845;28;20454;-84
2022/11/10 08:51:00;;;;;;;11.00;7.57;;;15.10;99.90;;;;;;5015266;28;20477;-83
2022/11/10 08:53:27;;;;;;;8.10;7.30;;;15.70;99.90;;;;;;5014802;28;20446;-82
2022/11/10 08:55:58;;;;;;;10.60;7.27;;;16.00;99.90;;;;;;5014066;28;20451;-83
2022/11/10 08:58:25;;;;;;;8.00;6.80;;;15.80;99.90;;;;;;5026206;28;20453;-81
2022/11/10 09:00:52;;;;;;;9.43;7.30;;;15.80;99.90;;;;;;5022549;28;20478;-83
2022/11/10 09:03:20;;;;;;;9.70;6.70;;;15.50;99.90;;;;;;5014738;28;20456;-84
2022/11/10 09:05:48;;;;;;;15.10;7.37;;;16.00;99.90;;;;;;5014584;28;20454;-84
2022/11/10 09:08:16;;;;;;;7.83;7.03;;;16.60;99.90;;;;;;5019632;28;20455;-81
2022/11/10 09:10:45;;;;;;;12.60;7.57;;;17.40;99.90;;;;;;5022987;28;20458;-81
2022/11/10 09:13:15;;;;;;;10.53;7.07;;;17.90;99.90;;;;;;5018618;28;20454;-83
2022/11/10 09:15:43;;;;;;;16.80;8.77;;;17.70;99.90;;;;;;5015726;28;20527;-84
2022/11/10 09:18:11;;;;;;;11.13;7.90;;;18.30;99.90;;;;;;5018958;28;20448;-83
2022/11/10 09:20:39;;;;;;;9.73;8.60;;;18.40;99.90;;;;;;5023518;28;20472;-84
2022/11/10 09:23:06;;;;;;;10.63;7.93;;;18.00;99.90;;;;;;5018105;28;20450;-84
2022/11/10 09:25:33;;;;;;;7.93;6.70;;;17.70;99.90;;;;;;5018372;28;20979;-84
2022/11/10 09:28:00;;;;;;;7.70;6.00;;;17.60;99.90;;;;;;5018138;28;20520;-83
2022/11/10 09:30:28;;;;;;;7.60;6.23;;;17.30;99.90;;;;;;5029918;28;20482;-79
2022/11/10 09:32:55;;;;;;;8.97;7.40;;;17.10;99.90;;;;;;5021723;28;20446;-83
2022/11/10 09:35:23;;;;;;;8.93;7.23;;;16.80;99.90;;;;;;5017957;28;20454;-83
2022/11/10 09:37:49;;;;;;;8.13;6.03;;;17.00;99.90;;;;;;5018290;28;20458;-84
2022/11/10 09:40:21;;;;;;;7.97;5.77;;;17.50;99.90;;;;;;5017906;28;20471;-83
2022/11/10 09:42:48;;;;;;;9.10;5.77;;;17.60;99.90;;;;;;5018061;28;20844;-83
2022/11/10 09:45:24;;;;;;;14.10;5.23;;;17.50;99.90;;;;;;5017656;28;20876;-84
2022/11/10 09:47:58;;;;;;;10.60;5.20;;;17.70;99.90;;;;;;5017502;28;20466;-83
2022/11/10 09:50:32;;;;;;;7.67;5.30;;;17.50;99.90;;;;;;5018054;28;20539;-83
2022/11/10 09:53:00;;;;;;;6.50;5.40;;;17.90;99.90;;;;;;5018171;28;20445;-84
2022/11/10 09:55:34;;;;;;;9.50;4.90;;;18.20;99.90;;;;;;5017753;28;20450;-84
2022/11/10 09:58:02;;;;;;;8.23;6.10;;;19.60;99.90;;;;;;5017620;28;20457;-82
2022/11/10 10:00:33;;;;;;;5.77;4.80;;;21.20;98.60;;;;;;5021770;28;20474;-82
2022/11/10 10:03:04;;;;;;;9.03;6.13;;;22.50;94.90;;;;;;5018566;28;20858;-82
2022/11/10 10:05:53;;;;;;;7.63;4.57;;;22.30;93.00;;;;;;5016951;28;20486;-81
2022/11/10 10:08:31;;;;;;;14.07;5.87;;;21.90;94.10;;;;;;5016543;28;20453;-83
2022/11/10 10:11:15;;;;;;;6.33;3.67;;;21.70;94.60;;;;;;5020174;28;20462;-82
2022/11/10 10:14:06;;;;;;;4.37;3.97;;;23.50;90.80;;;;;;5037606;28;20431;-81
2022/11/10 10:16:38;;;;;;;7.40;4.00;;;24.10;89.80;;;;;;5025163;28;20435;-82
2022/11/10 10:19:19;;;;;;;4.87;3.23;;;25.40;84.50;;;;;;5016135;28;20446;-82
2022/11/10 10:21:58;;;;;;;8.23;3.10;;;27.10;78.70;;;;;;5016826;28;20465;-82
2022/11/10 10:24:29;;;;;;;5.97;3.83;;;27.90;72.10;;;;;;5016819;28;20510;-82
2022/11/10 10:26:59;;;;;;;5.90;3.63;;;29.50;68.60;;;;;;5016994;28;20454;-84
2022/11/10 10:29:30;;;;;;;7.37;4.17;;;30.70;62.30;;;;;;5018466;28;20470;-84
2022/11/10 10:31:59;;;;;;;9.27;3.00;;;32.30;59.10;;;;;;5017614;28;20473;-82
2022/11/10 10:34:33;;;;;;;5.40;3.30;;;32.60;54.00;;;;;;5017450;28;20809;-83
2022/11/10 10:37:00;;;;;;;5.50;3.50;;;31.40;54.00;;;;;;5016636;28;20461;-83
2022/11/10 10:39:29;;;;;;;7.50;4.13;;;32.50;53.60;;;;;;5016441;28;20840;-83
2022/11/10 10:41:56;;;;;;;6.50;2.93;;;33.20;51.50;;;;;;5025484;28;20555;-81
2022/11/10 10:44:25;;;;;;;5.10;1.80;;;31.90;49.40;;;;;;5022072;28;20483;-81
2022/11/10 10:46:58;;;;;;;6.33;1.80;;;31.50;47.60;;;;;;5022238;28;20454;-82
2022/11/10 10:49:28;;;;;;;7.07;1.43;;;30.90;48.30;;;;;;5018469;28;20453;-82
2022/11/10 10:52:06;;;;;;;3.80;1.40;;;31.10;48.60;;;;;;5019258;28;21000;-82
2022/11/10 10:54:35;;;;;;;3.07;1.60;;;32.00;46.70;;;;;;5031801;28;20445;-79
2022/11/10 10:57:04;;;;;;;5.00;1.83;;;31.70;45.50;;;;;;5033747;28;20444;-81
2022/11/10 10:59:32;;;;;;;6.53;1.87;;;32.00;46.00;;;;;;5024084;28;20442;-82
2022/11/10 11:01:59;;;;;;;5.20;1.67;;;32.00;46.30;;;;;;5018715;28;20514;-83
2022/11/10 11:04:30;;;;;;;2.77;1.50;;;32.60;45.50;;;;;;5019138;28;20484;-81
2022/11/10 11:06:58;;;;;;;3.10;1.30;;;32.90;44.60;;;;;;5020955;28;20481;-84
2022/11/10 11:09:27;;;;;;;5.93;1.50;;;34.00;43.40;;;;;;5021272;28;20461;-84
2022/11/10 11:12:02;;;;;;;4.10;1.47;;;33.40;41.50;;;;;;5018886;28;20469;-84
2022/11/10 11:14:30;;;;;;;3.73;1.30;;;32.00;44.70;;;;;;5018289;28;20451;-85
2022/11/10 11:16:59;;;;;;;3.63;1.47;;;32.20;43.20;;;;;;5033003;28;20442;-81
2022/11/10 11:19:30;;;;;;;4.23;1.60;;;32.70;43.60;;;;;;5038372;28;20441;-81
2022/11/10 11:22:16;;;;;;;3.10;1.17;;;33.50;42.30;;;;;;5033554;28;20472;-81
2022/11/10 11:24:50;;;;;;;4.53;1.63;;;34.20;41.30;;;;;;5021793;28;20497;-83
2022/11/10 11:27:28;;;;;;;6.60;1.30;;;34.00;40.70;;;;;;5023681;28;20507;-81
2022/11/10 11:30:04;;;;;;;6.83;1.50;;;32.70;40.90;;;;;;5022840;28;20473;-83
2022/11/10 11:32:55;;;;;;;3.70;1.40;;;30.20;43.80;;;;;;5019007;28;20460;-81
2022/11/10 11:35:31;;;;;;;4.37;1.60;;;30.40;44.80;;;;;;5026604;28;20471;-83
2022/11/10 11:38:07;;;;;;;7.40;2.00;;;28.50;45.40;;;;;;5017564;28;20950;-83
2022/11/10 11:40:45;;;;;;;4.90;1.90;;;28.30;48.40;;;;;;5017155;28;20855;-82
2022/11/10 11:43:31;;;;;;;8.40;1.87;;;28.10;47.70;;;;;;5017199;28;20456;-83
2022/11/10 11:46:06;;;;;;;7.90;1.70;;;28.70;47.60;;;;;;5017192;28;20502;-83
2022/11/10 11:48:48;;;;;;;3.57;1.17;;;29.70;46.50;;;;;;5017063;28;20457;-83
2022/11/10 11:51:22;;;;;;;4.50;1.10;;;29.50;46.40;;;;;;5016596;28;20841;-83
2022/11/10 11:54:17;;;;;;;4.67;1.40;;;30.60;44.80;;;;;;5018115;28;20465;-83
2022/11/10 11:56:47;;;;;;;5.57;1.63;;;31.00;44.00;;;;;;5016569;28;20447;-80
2022/11/10 11:59:28;;;;;;;2.47;1.30;;;30.50;44.20;;;;;;5016622;28;20517;-83
2022/11/10 12:02:23;;;;;;;3.20;1.33;;;30.60;43.50;;;;;;5016635;28;20478;-83
2022/11/10 12:05:03;;;;;;;16.90;3.30;;;30.40;43.60;;;;;;5021475;28;20496;-83
2022/11/10 12:07:44;;;;;;;4.70;2.50;;;30.10;44.30;;;;;;5016381;28;20800;-82
2022/11/10 12:10:24;;;;;;;5.80;1.20;;;28.40;46.40;;;;;;5017569;28;20472;-83
2022/11/10 12:13:21;;;;;;;5.80;1.50;;;27.50;47.10;;;;;;5016283;28;20447;-83
2022/11/10 12:15:54;;;;;;;5.07;1.70;;;25.90;48.70;;;;;;5017521;28;20445;-83
2022/11/10 12:18:32;;;;;;;6.33;1.87;;;25.70;50.20;;;;;;5016329;28;20452;-81
2022/11/10 12:21:12;;;;;;;3.43;1.40;;;25.80;50.60;;;;;;5019019;28;20913;-84
2022/11/10 12:23:49;;;;;;;3.00;1.90;;;25.80;50.10;;;;;;5016742;28;20437;-83
2022/11/10 12:26:26;;;;;;;3.97;1.73;;;25.00;50.20;;;;;;5017458;28;20487;-84
2022/11/10 12:29:00;;;;;;;2.60;1.20;;;25.30;51.70;;;;;;5018320;28;20836;-83
2022/11/10 12:31:31;;;;;;;4.13;1.57;;;26.00;50.90;;;;;;5031011;28;20518;-80
2022/11/10 12:34:02;;;;;;;5.10;3.07;;;26.10;50.10;;;;;;5036938;28;20449;-81
2022/11/10 12:36:31;;;;;;;4.23;2.13;;;24.90;51.00;;;;;;5016539;28;20863;-84
2022/11/10 12:39:11;;;;;;;6.10;1.87;;;24.30;52.00;;;;;;5014822;28;20459;-83
2022/11/10 12:41:44;;;;;;;4.83;1.23;;;23.50;54.20;;;;;;5020149;28;20551;-82
2022/11/10 12:44:21;;;;;;;4.30;1.67;;;22.60;53.80;;;;;;5026089;28;20470;-82
2022/11/10 12:46:50;;;;;;;10.70;2.60;;;21.80;56.00;;;;;;5023327;28;20448;-82
2022/11/10 12:49:22;;;;;;;4.30;1.83;;;21.10;57.40;;;;;;5015989;28;20456;-83
2022/11/10 12:51:56;;;;;;;9.03;2.37;;;20.60;59.20;;;;;;5018882;28;20826;-83
2022/11/10 12:54:28;;;;;;;3.83;1.40;;;20.30;60.90;;;;;;5019631;28;20451;-83
2022/11/10 12:56:57;;;;;;;6.80;1.27;;;20.10;59.80;;;;;;5020213;28;20446;-83
2022/11/10 12:59:31;;;;;;;4.00;1.70;;;20.00;60.90;;;;;;5020384;28;20449;-82
2022/11/10 13:02:02;;;;;;;6.73;2.00;;;20.10;66.40;;;;;;5046346;22;20497;-83
2022/11/10 13:04:30;;;;;;;5.97;3.13;;;20.20;67.40;;;;;;5036941;28;20456;-83
2022/11/10 13:07:00;;;;;;;2.90;1.40;;;20.20;66.50;;;;;;5036500;28;20437;-84
2022/11/10 13:09:31;;;;;;;3.20;1.43;;;20.10;66.60;;;;;;5036425;28;20437;-83
2022/11/10 13:12:17;;;;;;;5.73;2.13;;;20.40;66.40;;;;;;5036360;28;20465;-83
2022/11/10 13:14:45;;;;;;;2.83;1.10;;;20.70;66.90;;;;;;5026716;28;20520;-83